createdAt,value
2018-03-23T17:22:43.354Z,983.93
2018-03-23T17:23:43.312Z,983.89
2018-03-23T17:24:43.293Z,983.86
2018-03-23T17:25:43.284Z,983.90
2018-03-23T17:26:43.261Z,983.85
2018-03-23T17:27:43.229Z,983.89
2018-03-23T17:28:43.217Z,983.87
2018-03-23T17:29:43.205Z,983.91
2018-03-23T17:30:43.181Z,983.87
2018-03-23T17:31:43.156Z,983.89
2018-03-23T17:32:43.144Z,983.88
2018-03-23T17:33:43.131Z,983.88
2018-03-23T17:34:43.106Z,983.83
2018-03-23T17:35:43.086Z,983.88
2018-03-23T17:36:43.065Z,983.87
2018-03-23T17:37:43.066Z,983.88
2018-03-23T17:38:43.035Z,983.90
2018-03-23T17:39:43.005Z,983.87
2018-03-23T17:40:42.990Z,983.89
2018-03-23T17:41:42.980Z,983.91
2018-03-23T17:42:42.957Z,983.79
2018-03-23T17:43:42.938Z,983.85
2018-03-23T17:44:44.209Z,983.86
2018-03-23T17:45:42.906Z,983.84
2018-03-23T17:46:42.881Z,983.83
2018-03-23T17:47:42.858Z,983.82
2018-03-23T17:48:42.875Z,983.83
2018-03-23T17:49:42.832Z,983.88
2018-03-23T17:50:42.812Z,983.86
2018-03-23T17:51:42.793Z,983.88
2018-03-23T17:52:42.775Z,983.85
2018-03-23T17:53:42.761Z,983.80
2018-03-23T17:54:42.734Z,983.81
2018-03-23T17:55:42.772Z,983.82
2018-03-23T17:56:42.710Z,983.80
2018-03-23T17:57:42.683Z,983.75
2018-03-23T17:58:42.670Z,983.76
2018-03-23T17:59:42.646Z,983.76
2018-03-23T18:00:42.633Z,983.72
2018-03-23T18:01:42.611Z,983.70
2018-03-23T18:02:42.596Z,983.75
2018-03-23T18:03:42.573Z,983.70
2018-03-23T18:04:42.557Z,983.70
2018-03-23T18:05:42.534Z,983.67
2018-03-23T18:06:42.531Z,983.67
2018-03-23T18:07:42.542Z,983.65
2018-03-23T18:08:42.480Z,983.65
2018-03-23T18:09:42.467Z,983.65
2018-03-23T18:10:42.447Z,983.62
2018-03-23T18:11:42.431Z,983.63
2018-03-23T18:13:30.537Z,983.64
2018-03-23T18:14:30.509Z,983.67
2018-03-23T18:15:30.486Z,983.64
2018-03-23T18:16:30.464Z,983.63
2018-03-23T18:17:30.467Z,983.59
2018-03-23T18:18:30.436Z,983.63
2018-03-23T18:19:30.416Z,983.65
2018-03-23T18:20:30.397Z,983.68
2018-03-23T18:21:30.384Z,983.70
2018-03-23T18:22:30.367Z,983.66
2018-03-23T18:23:30.332Z,983.67
2018-03-23T18:24:30.338Z,983.68
2018-03-23T18:25:30.309Z,983.69
2018-03-23T18:26:30.278Z,983.69
2018-03-23T18:27:30.266Z,983.70
2018-03-23T18:28:30.246Z,983.70
2018-03-23T18:29:30.227Z,983.73
2018-03-23T18:30:30.209Z,983.74
2018-03-23T18:31:30.203Z,983.73
2018-03-23T18:32:30.178Z,983.71
2018-03-23T18:33:30.156Z,983.75
2018-03-23T18:34:30.142Z,983.71
2018-03-23T18:35:30.126Z,983.71
2018-03-23T18:36:30.113Z,983.69
2018-03-23T18:37:30.078Z,983.70
2018-03-23T18:38:30.071Z,983.70
2018-03-23T18:39:30.043Z,983.69
2018-03-23T18:40:30.037Z,983.67
2018-03-23T18:41:30.018Z,983.67
2018-03-23T18:42:30.000Z,983.66
2018-03-23T18:43:29.984Z,983.66
2018-03-23T18:44:29.960Z,983.65
2018-03-23T18:45:29.938Z,983.66
2018-03-23T18:46:29.916Z,983.65
2018-03-23T18:47:29.896Z,983.64
2018-03-23T18:48:29.878Z,983.65
2018-03-23T18:49:29.884Z,983.62
2018-03-23T18:50:29.852Z,983.65
2018-03-23T18:51:29.848Z,983.67
2018-03-23T18:52:29.814Z,983.71
2018-03-23T18:53:29.801Z,983.65
2018-03-23T18:54:29.792Z,983.69
2018-03-23T18:55:29.775Z,983.72
2018-03-23T18:56:29.740Z,983.69
2018-03-23T18:57:29.721Z,983.69
2018-03-23T18:58:29.700Z,983.68
2018-03-23T18:59:29.692Z,983.70
2018-03-23T19:00:29.679Z,983.66
2018-03-23T19:01:29.656Z,983.64
2018-03-23T19:02:29.634Z,983.59
2018-03-23T19:03:29.612Z,983.59
2018-03-23T19:04:29.590Z,983.53
2018-03-23T19:05:29.575Z,983.55
2018-03-23T19:06:29.551Z,983.57
2018-03-23T19:07:29.604Z,983.55
2018-03-23T19:08:29.535Z,983.54
2018-03-23T19:09:29.494Z,983.52
2018-03-23T19:10:29.487Z,983.50
2018-03-23T19:11:29.463Z,983.50
2018-03-23T19:12:29.450Z,983.49
2018-03-23T19:13:29.421Z,983.48
2018-03-23T19:14:29.402Z,983.44
2018-03-23T19:15:29.467Z,983.42
2018-03-23T19:16:29.364Z,983.41
2018-03-23T19:17:29.364Z,983.35
2018-03-23T19:18:29.344Z,983.34
2018-03-23T19:19:29.386Z,983.33
2018-03-23T19:20:29.291Z,983.33
2018-03-23T19:21:29.272Z,983.34
2018-03-23T19:22:29.255Z,983.38
2018-03-23T19:23:29.230Z,983.38
2018-03-23T19:24:29.208Z,983.36
2018-03-23T19:25:29.195Z,983.38
2018-03-23T19:26:29.185Z,983.41
2018-03-23T19:27:29.157Z,983.44
2018-03-23T19:28:29.156Z,983.42
2018-03-23T19:29:29.122Z,983.45
2018-03-23T19:30:29.103Z,983.43
2018-03-23T19:31:29.090Z,983.41
2018-03-23T19:32:29.064Z,983.39
2018-03-23T19:33:29.057Z,983.32
2018-03-23T19:34:29.032Z,983.34
2018-03-23T19:35:29.012Z,983.35
2018-03-23T19:36:28.995Z,983.34
2018-03-23T19:37:28.974Z,983.33
2018-03-23T19:38:28.954Z,983.34
2018-03-23T19:39:28.942Z,983.35
2018-03-23T19:40:28.919Z,983.34
2018-03-23T19:41:28.948Z,983.34
2018-03-23T19:42:28.880Z,983.33
2018-03-23T19:43:28.861Z,983.29
2018-03-23T19:44:28.846Z,983.29
2018-03-23T19:45:28.838Z,983.26
2018-03-23T19:46:28.805Z,983.26
2018-03-23T19:47:28.808Z,983.26
2018-03-23T19:48:28.770Z,983.24
2018-03-23T19:49:28.757Z,983.22
2018-03-23T19:50:28.733Z,983.23
2018-03-23T19:51:28.716Z,983.29
2018-03-23T19:52:28.691Z,983.26
2018-03-23T19:53:28.674Z,983.22
2018-03-23T19:54:28.720Z,983.23
2018-03-23T19:55:28.632Z,983.25
2018-03-23T19:56:28.646Z,983.27
2018-03-23T19:57:28.593Z,983.25
2018-03-23T19:58:28.584Z,983.28
2018-03-23T19:59:28.565Z,983.27
2018-03-23T20:00:28.540Z,983.26
2018-03-23T20:01:28.536Z,983.26
2018-03-23T20:02:28.505Z,983.23
2018-03-23T20:03:28.478Z,983.25
2018-03-23T20:04:28.465Z,983.22
2018-03-23T20:05:28.437Z,983.23
2018-03-23T20:06:28.443Z,983.24
2018-03-23T20:07:28.400Z,983.19
2018-03-23T20:08:28.388Z,983.19
2018-03-23T20:09:28.368Z,983.17
2018-03-23T20:10:28.348Z,983.15
2018-03-23T20:11:28.330Z,983.14
2018-03-23T20:12:28.317Z,983.16
2018-03-23T20:13:28.290Z,983.14
2018-03-23T20:14:28.275Z,983.14
2018-03-23T20:15:28.255Z,983.13
2018-03-23T20:16:28.245Z,983.12
2018-03-23T20:17:28.212Z,983.13
2018-03-23T20:18:28.215Z,983.09
2018-03-23T20:19:28.186Z,983.08
2018-03-23T20:20:28.167Z,983.06
2018-03-23T20:21:28.167Z,983.10
2018-03-23T20:22:28.124Z,983.09
2018-03-23T20:23:28.100Z,983.10
2018-03-23T20:24:28.082Z,983.06
2018-03-23T20:25:28.068Z,983.04
2018-03-23T20:26:28.049Z,983.04
2018-03-23T20:27:28.023Z,983.07
2018-03-23T20:28:28.013Z,983.05
2018-03-23T20:29:27.995Z,983.06
2018-03-23T20:30:27.979Z,983.00
2018-03-23T20:31:27.953Z,983.04
2018-03-23T20:32:27.937Z,983.00
2018-03-23T20:33:27.933Z,983.02
2018-03-23T20:34:27.897Z,983.00
2018-03-23T20:35:27.885Z,982.99
2018-03-23T20:36:27.866Z,983.00
2018-03-23T20:37:27.840Z,983.03
2018-03-23T20:38:27.829Z,983.02
2018-03-23T20:39:27.819Z,983.01
2018-03-23T20:40:27.773Z,983.05
2018-03-23T20:41:27.769Z,983.01
2018-03-23T20:42:27.740Z,982.97
2018-03-23T20:43:27.717Z,982.96
2018-03-23T20:44:27.725Z,982.96
2018-03-23T20:45:27.692Z,983.00
2018-03-23T20:46:27.670Z,982.95
2018-03-23T20:47:27.650Z,982.93
2018-03-23T20:48:27.647Z,982.92
2018-03-23T20:49:27.602Z,982.88
2018-03-23T20:50:27.598Z,982.93
2018-03-23T20:51:27.571Z,982.98
2018-03-23T20:52:27.548Z,982.99
2018-03-23T20:53:27.548Z,983.01
2018-03-23T20:54:27.510Z,982.97
2018-03-23T20:55:27.487Z,982.98
2018-03-23T20:56:27.469Z,982.99
2018-03-23T20:57:27.449Z,982.98
2018-03-23T20:58:27.430Z,982.95
2018-03-23T20:59:27.414Z,982.91
2018-03-23T21:00:27.416Z,982.92
2018-03-23T21:01:27.389Z,982.88
2018-03-23T21:02:27.373Z,982.92
2018-03-23T21:03:27.351Z,982.89
2018-03-23T21:04:27.341Z,982.89
2018-03-23T21:05:27.308Z,982.91
2018-03-23T21:06:28.109Z,982.89
2018-03-23T21:07:27.277Z,982.89
2018-03-23T21:08:27.250Z,982.88
2018-03-23T21:09:27.222Z,982.90
2018-03-23T21:10:27.207Z,982.86
2018-03-23T21:11:27.190Z,982.88
2018-03-23T21:12:27.163Z,982.86
2018-03-23T21:13:27.142Z,982.84
2018-03-23T21:14:27.126Z,982.82
2018-03-23T21:15:27.104Z,982.82
2018-03-23T21:16:27.088Z,982.79
2018-03-23T21:17:27.066Z,982.80
2018-03-23T21:18:27.054Z,982.75
2018-03-23T21:19:27.033Z,982.72
2018-03-23T21:20:27.006Z,982.73
2018-03-23T21:21:26.987Z,982.73
2018-03-23T21:22:26.975Z,982.73
2018-03-23T21:23:26.955Z,982.74
2018-03-23T21:24:26.936Z,982.73
2018-03-23T21:25:26.918Z,982.72
2018-03-23T21:26:26.895Z,982.74
2018-03-23T21:27:26.875Z,982.75
2018-03-23T21:28:26.875Z,982.73
2018-03-23T21:29:26.831Z,982.68
2018-03-23T21:30:26.815Z,982.67
2018-03-23T21:31:26.790Z,982.65
2018-03-23T21:32:26.780Z,982.70
2018-03-23T21:33:26.751Z,982.68
2018-03-23T21:34:26.759Z,982.68
2018-03-23T21:35:26.723Z,982.66
2018-03-23T21:36:26.722Z,982.70
2018-03-23T21:37:26.680Z,982.65
2018-03-23T21:38:26.661Z,982.65
2018-03-23T21:39:26.639Z,982.65
2018-03-23T21:40:26.627Z,982.62
2018-03-23T21:41:26.610Z,982.62
2018-03-23T21:42:26.584Z,982.62
2018-03-23T21:43:26.564Z,982.60
2018-03-23T21:44:26.554Z,982.62
2018-03-23T21:45:26.550Z,982.59
2018-03-23T21:46:26.507Z,982.62
2018-03-23T21:47:26.484Z,982.57
2018-03-23T21:48:26.466Z,982.57
2018-03-23T21:49:26.442Z,982.58
2018-03-23T21:50:26.431Z,982.56
2018-03-23T21:51:26.416Z,982.58
2018-03-23T21:52:26.391Z,982.60
2018-03-23T21:53:26.368Z,982.59
2018-03-23T21:54:26.365Z,982.58
2018-03-23T21:55:26.326Z,982.60
2018-03-23T21:56:26.307Z,982.62
2018-03-23T21:57:26.284Z,982.64
2018-03-23T21:58:26.269Z,982.63
2018-03-23T21:59:26.256Z,982.62
2018-03-23T22:00:26.238Z,982.64
2018-03-23T22:01:26.214Z,982.63
2018-03-23T22:02:26.196Z,982.57
2018-03-23T22:03:26.168Z,982.58
2018-03-23T22:04:26.158Z,982.55
2018-03-23T22:05:26.140Z,982.54
2018-03-23T22:06:26.120Z,982.54
2018-03-23T22:07:26.085Z,982.55
2018-03-23T22:08:26.081Z,982.54
2018-03-23T22:09:26.059Z,982.47
2018-03-23T22:10:26.040Z,982.47
2018-03-23T22:11:26.034Z,982.50
2018-03-23T22:12:26.001Z,982.49
2018-03-23T22:13:26.043Z,982.50
2018-03-23T22:14:25.966Z,982.49
2018-03-23T22:15:25.934Z,982.49
2018-03-23T22:16:25.934Z,982.49
2018-03-23T22:17:25.892Z,982.45
2018-03-23T22:18:25.882Z,982.44
2018-03-23T22:19:25.860Z,982.42
2018-03-23T22:20:25.848Z,982.41
2018-03-23T22:21:25.816Z,982.43
2018-03-23T22:22:25.800Z,982.44
2018-03-23T22:23:25.780Z,982.40
2018-03-23T22:24:25.765Z,982.41
2018-03-23T22:25:25.748Z,982.43
2018-03-23T22:26:25.733Z,982.42
2018-03-23T22:27:25.716Z,982.40
2018-03-23T22:28:25.691Z,982.41
2018-03-23T22:29:25.663Z,982.36
2018-03-23T22:30:25.646Z,982.36
2018-03-23T22:31:25.648Z,982.35
2018-03-23T22:32:25.600Z,982.36
2018-03-23T22:33:25.591Z,982.33
2018-03-23T22:34:25.605Z,982.32
2018-03-23T22:35:25.549Z,982.34
2018-03-23T22:36:25.532Z,982.29
2018-03-23T22:37:25.502Z,982.32
2018-03-23T22:38:25.493Z,982.26
2018-03-23T22:39:25.460Z,982.24
2018-03-23T22:40:25.449Z,982.23
2018-03-23T22:41:25.445Z,982.26
2018-03-23T22:42:25.404Z,982.17
2018-03-23T22:43:25.399Z,982.20
2018-03-23T22:44:29.375Z,982.20
2018-03-23T22:45:30.657Z,982.17
2018-03-23T22:52:46.189Z,982.15
2018-03-23T22:53:37.414Z,982.16
2018-03-23T22:54:38.447Z,982.14
2018-03-23T22:55:37.672Z,982.15
2018-03-23T22:56:37.073Z,982.11
2018-03-23T22:57:48.807Z,982.10
2018-03-23T22:59:32.329Z,982.08
2018-03-23T23:00:32.482Z,982.10
2018-03-23T23:01:32.131Z,982.09
2018-03-23T23:02:32.186Z,982.08
2018-03-23T23:03:31.712Z,982.09
2018-03-23T23:04:31.674Z,982.10
2018-03-23T23:05:32.042Z,982.06
2018-03-23T23:06:32.346Z,982.12
2018-03-23T23:07:32.391Z,982.10
2018-03-23T23:08:31.412Z,982.10
2018-03-23T23:09:31.542Z,982.11
2018-03-23T23:10:31.936Z,982.08
2018-03-23T23:11:31.872Z,982.09
2018-03-23T23:12:32.499Z,982.10
2018-03-23T23:13:33.446Z,982.07
2018-03-23T23:14:31.472Z,982.08
2018-03-23T23:15:31.519Z,982.05
2018-03-23T23:16:31.354Z,982.07
2018-03-23T23:17:32.766Z,982.02
2018-03-23T23:18:31.247Z,982.04
2018-03-23T23:19:31.746Z,982.03
2018-03-23T23:20:31.247Z,981.99
2018-03-23T23:21:31.662Z,982.01
2018-03-23T23:22:31.352Z,981.95
2018-03-23T23:23:31.203Z,981.96
2018-03-23T23:24:31.240Z,981.99
2018-03-23T23:25:31.282Z,981.94
2018-03-23T23:26:31.075Z,981.99
2018-03-23T23:27:30.897Z,981.94
2018-03-23T23:28:39.166Z,981.94
2018-03-23T23:29:32.074Z,981.93
2018-03-23T23:30:30.998Z,981.88
2018-03-23T23:31:31.997Z,981.89
2018-03-23T23:32:31.470Z,981.85
2018-03-23T23:33:31.004Z,981.84
2018-03-23T23:34:31.940Z,981.81
2018-03-23T23:35:31.343Z,981.81
2018-03-23T23:36:40.355Z,981.80
2018-03-23T23:41:03.341Z,981.78
2018-03-23T23:42:03.297Z,981.75
2018-03-23T23:43:03.044Z,981.74
2018-03-23T23:44:03.835Z,981.71
2018-03-23T23:45:03.495Z,981.73
2018-03-23T23:46:02.832Z,981.73
2018-03-23T23:47:02.634Z,981.68
2018-03-23T23:48:02.717Z,981.72
2018-03-23T23:49:02.985Z,981.69
2018-03-23T23:50:02.523Z,981.65
2018-03-23T23:51:02.507Z,981.62
2018-03-23T23:52:02.556Z,981.65
2018-03-23T23:53:02.978Z,981.62
2018-03-23T23:54:02.841Z,981.59
2018-03-23T23:55:02.343Z,981.55
2018-03-23T23:56:02.600Z,981.53
2018-03-23T23:57:02.619Z,981.49
2018-03-23T23:58:03.501Z,981.50
2018-03-23T23:59:05.981Z,981.46
